Time;durP1;ratioP1;P1;durP2;ratioP2;P2;SDS_P1;SDS_P2;PMS_P1;PMS_P2;Temp;Humidity;BMP_temperature;BMP_pressure;BME280_temperature;BME280_humidity;BME280_pressure;Samples;Min_cycle;Max_cycle;Signal;HPM_P1;HPM_P2
2023/05/27 00:00:05;;;;;;;16.47;6.10;;;;;;;-145.69;100.00;52264.16;5064238;28;20608;-79
2023/05/27 00:02:31;;;;;;;12.53;6.40;;;;;;;-145.69;100.00;52280.00;5072961;28;20233;-79
2023/05/27 00:04:58;;;;;;;10.97;5.90;;;;;;;-145.69;100.00;52276.06;5072966;28;20596;-79
2023/05/27 00:07:24;;;;;;;13.63;6.60;;;;;;;-145.69;100.00;52268.13;5072797;28;20206;-80
2023/05/27 00:09:53;;;;;;;13.10;6.40;;;;;;;-145.69;100.00;52297.84;5072918;28;20286;-79
2023/05/27 00:12:20;;;;;;;11.20;5.90;;;;;;;-145.69;100.00;52274.06;5059595;28;20650;-79
2023/05/27 00:14:47;;;;;;;14.00;6.67;;;;;;;-145.69;100.00;52222.59;5053000;28;20199;-79
2023/05/27 00:17:14;;;;;;;17.63;6.50;;;;;;;-145.69;100.00;52282.00;5055936;28;20190;-79
2023/05/27 00:19:41;;;;;;;15.48;6.65;;;;;;;-145.69;100.00;52254.28;5072335;28;20474;-79
2023/05/27 00:22:08;;;;;;;16.03;6.50;;;;;;;-145.69;100.00;52291.91;5072728;28;20309;-79
2023/05/27 00:24:36;;;;;;;11.53;6.43;;;;;;;-145.69;100.00;52274.06;5058176;28;20191;-79
2023/05/27 00:27:03;;;;;;;11.53;6.10;;;;;;;-145.69;100.00;52250.31;5066674;28;20244;-79
2023/05/27 00:29:29;;;;;;;13.47;6.20;;;;;;;-145.69;100.00;52264.16;5053032;28;20203;-80
2023/05/27 00:31:57;;;;;;;12.53;6.23;;;;;;;-145.69;100.00;52274.06;5052645;28;20204;-79
2023/05/27 00:34:23;;;;;;;10.37;5.93;;;;;;;-145.69;100.00;52240.41;5052787;28;20202;-79
2023/05/27 00:36:50;;;;;;;11.73;6.07;;;;;;;-145.69;100.00;52252.28;5052677;28;20203;-79
2023/05/27 00:39:16;;;;;;;15.27;6.07;;;;;;;-145.69;100.00;52307.75;5052314;28;20203;-79
2023/05/27 00:41:49;;;;;;;10.87;6.10;;;;;;;-145.69;100.00;52285.97;5055262;28;20426;-79
2023/05/27 00:44:16;;;;;;;12.17;5.97;;;;;;;-145.69;100.00;52282.00;5060532;28;20219;-79
2023/05/27 00:46:42;;;;;;;14.90;6.60;;;;;;;-145.69;100.00;52278.03;5052637;28;20200;-79
2023/05/27 00:49:13;;;;;;;17.03;7.07;;;;;;;-145.69;100.00;52303.78;5056558;28;20223;-79
2023/05/27 00:51:39;;;;;;;13.33;6.33;;;;;;;-145.69;100.00;52260.22;5053358;28;20211;-79
2023/05/27 00:54:07;;;;;;;17.87;6.87;;;;;;;-145.69;100.00;52274.06;5072384;28;20205;-80
2023/05/27 00:56:36;;;;;;;15.23;6.83;;;;;;;-145.69;100.00;52293.88;5072741;28;20207;-79
2023/05/27 00:59:03;;;;;;;11.63;6.20;;;;;;;-145.69;100.00;52246.34;5072911;28;20210;-80
2023/05/27 01:01:36;;;;;;;14.83;6.43;;;;;;;-145.69;100.00;52238.44;5072647;28;20206;-79
2023/05/27 01:04:03;;;;;;;14.53;6.43;;;;;;;-145.69;100.00;52270.13;5068607;28;20202;-79
2023/05/27 01:06:40;;;;;;;18.50;6.83;;;;;;;-145.69;100.00;52293.88;5053252;28;20192;-79
2023/05/27 01:09:12;;;;;;;13.70;5.80;;;;;;;-145.69;100.00;52274.06;5052244;28;20203;-79
2023/05/27 01:11:43;;;;;;;13.93;6.20;;;;;;;-145.69;100.00;52264.16;5052456;28;20213;-79
2023/05/27 01:14:12;;;;;;;16.58;7.20;;;;;;;-145.69;100.00;52321.59;5051261;28;20941;-79
2023/05/27 01:16:45;;;;;;;14.57;6.80;;;;;;;-145.69;100.00;52238.44;5060834;28;20668;-79
2023/05/27 01:19:16;;;;;;;13.87;6.33;;;;;;;-145.69;100.00;52268.13;5071687;28;20203;-79
2023/05/27 01:21:50;;;;;;;19.23;6.60;;;;;;;-145.69;100.00;52278.03;5071029;28;20206;-80
2023/05/27 01:24:18;;;;;;;15.73;6.40;;;;;;;-145.69;100.00;52285.97;5062259;28;20282;-79
2023/05/27 01:26:44;;;;;;;15.47;6.23;;;;;;;-145.69;100.00;52278.03;5052238;28;20199;-79
2023/05/27 01:29:11;;;;;;;16.77;6.83;;;;;;;-145.69;100.00;52254.28;5052841;28;20654;-79
2023/05/27 01:31:46;;;;;;;17.10;7.53;;;;;;;-145.69;100.00;52278.03;5060749;28;20195;-79
2023/05/27 01:34:26;;;;;;;15.13;7.47;;;;;;;-145.69;100.00;52282.00;5074010;28;20202;-80
2023/05/27 01:37:02;;;;;;;13.50;6.43;;;;;;;-145.69;100.00;52266.16;5057626;28;20196;-80
2023/05/27 01:39:30;;;;;;;16.30;7.53;;;;;;;-145.69;100.00;52287.94;5071618;28;20194;-79
2023/05/27 01:42:00;;;;;;;18.63;6.70;;;;;;;-145.69;100.00;52258.22;5072932;28;20229;-81
2023/05/27 01:44:27;;;;;;;20.93;7.37;;;;;;;-145.69;100.00;52258.22;5058237;28;20279;-79
2023/05/27 01:46:59;;;;;;;13.57;7.10;;;;;;;-145.69;100.00;52270.13;5075623;28;20285;-79
2023/05/27 01:49:25;;;;;;;18.90;7.37;;;;;;;-145.69;100.00;52248.34;5060157;28;20232;-80
2023/05/27 01:51:55;;;;;;;12.77;7.00;;;;;;;-145.69;100.00;52252.28;5035516;28;20200;-79
2023/05/27 01:54:21;;;;;;;17.47;7.97;;;;;;;-145.69;100.00;52289.91;5037867;28;20203;-80
2023/05/27 01:56:49;;;;;;;18.17;7.57;;;;;;;-145.69;100.00;52293.88;5074916;28;20197;-80
2023/05/27 01:59:16;;;;;;;15.93;6.93;;;;;;;-145.69;100.00;52297.84;5064607;28;20203;-80
2023/05/27 02:01:45;;;;;;;16.03;6.90;;;;;;;-145.69;100.00;52297.84;5055137;28;20212;-80
2023/05/27 02:04:11;;;;;;;14.07;6.57;;;;;;;-145.69;100.00;52299.81;5054983;28;20227;-80
2023/05/27 02:06:44;;;;;;;14.43;6.73;;;;;;;-145.69;100.00;52285.97;5059462;28;20244;-80
2023/05/27 02:09:13;;;;;;;17.03;6.47;;;;;;;-145.69;100.00;52293.88;5075015;28;20206;-80
2023/05/27 02:11:40;;;;;;;17.13;7.70;;;;;;;-145.69;100.00;52297.84;5075066;28;20206;-80
2023/05/27 02:14:08;;;;;;;16.07;7.40;;;;;;;-145.69;100.00;52285.97;5074740;28;20203;-80
2023/05/27 02:16:36;;;;;;;15.57;7.00;;;;;;;-145.69;100.00;52299.81;5075138;28;20206;-80
2023/05/27 02:19:04;;;;;;;20.43;8.63;;;;;;;-145.69;100.00;52297.84;5068029;28;20207;-81
2023/05/27 02:21:33;;;;;;;19.50;7.40;;;;;;;-145.69;100.00;52315.66;5066043;28;20230;-81
2023/05/27 02:24:00;;;;;;;16.17;7.07;;;;;;;-145.69;100.00;52319.63;5074778;28;20230;-80
2023/05/27 02:26:26;;;;;;;13.10;7.20;;;;;;;-145.69;100.00;52262.19;5074905;28;20218;-80
2023/05/27 02:28:55;;;;;;;16.17;7.63;;;;;;;-145.69;100.00;52282.00;5074827;28;20198;-80
2023/05/27 02:31:23;;;;;;;20.20;7.97;;;;;;;-145.69;100.00;52311.69;5067797;28;20282;-80
2023/05/27 02:33:50;;;;;;;11.70;7.33;;;;;;;-145.69;100.00;52274.06;5054010;28;20204;-81
2023/05/27 02:36:16;;;;;;;23.07;8.63;;;;;;;-145.69;100.00;52297.84;5054402;28;20203;-81
2023/05/27 02:38:50;;;;;;;17.73;7.83;;;;;;;-145.69;100.00;52303.78;5054731;28;20290;-80
2023/05/27 02:41:17;;;;;;;21.00;7.80;;;;;;;-145.69;100.00;52303.78;5053385;28;20269;-80
2023/05/27 02:43:44;;;;;;;17.50;8.00;;;;;;;-145.69;100.00;52289.91;5065493;28;20226;-80
2023/05/27 02:46:10;;;;;;;18.33;8.53;;;;;;;-145.69;100.00;52303.78;5074421;28;20207;-80
2023/05/27 02:48:41;;;;;;;17.67;9.10;;;;;;;-145.69;100.00;52303.78;5074448;28;20202;-80
2023/05/27 02:51:07;;;;;;;24.23;9.10;;;;;;;-145.69;100.00;52325.56;5074464;28;20213;-80
2023/05/27 02:53:33;;;;;;;19.67;9.20;;;;;;;-145.69;100.00;52343.38;5074328;28;20213;-79
2023/05/27 02:56:00;;;;;;;19.57;8.60;;;;;;;-145.69;100.00;52270.13;5058492;28;20245;-79
2023/05/27 02:58:33;;;;;;;18.77;8.23;;;;;;;-145.69;100.00;52309.72;5053873;28;20566;-79
2023/05/27 03:01:03;;;;;;;18.97;8.90;;;;;;;-145.69;100.00;52301.81;5053660;28;20213;-81
2023/05/27 03:03:29;;;;;;;20.23;8.70;;;;;;;-145.69;100.00;52278.03;5062543;28;20218;-80
2023/05/27 03:05:57;;;;;;;23.83;8.67;;;;;;;-145.69;100.00;52285.97;5074162;28;20225;-80
2023/05/27 03:08:24;;;;;;;23.67;8.97;;;;;;;-145.69;100.00;52274.06;5074045;28;20225;-80
2023/05/27 03:10:52;;;;;;;18.90;10.03;;;;;;;-145.69;100.00;52293.88;5073483;28;20461;-80
2023/05/27 03:13:19;;;;;;;19.70;8.73;;;;;;;-145.69;100.00;52323.59;5064875;28;20195;-80
2023/05/27 03:15:50;;;;;;;16.50;8.30;;;;;;;-145.69;100.00;52309.72;5053768;28;20203;-80
2023/05/27 03:18:17;;;;;;;22.03;9.27;;;;;;;-145.69;100.00;52297.84;5053721;28;20211;-80
2023/05/27 03:20:45;;;;;;;23.23;10.03;;;;;;;-145.69;100.00;52278.03;5053862;28;20207;-81
2023/05/27 03:23:13;;;;;;;14.77;8.27;;;;;;;-145.69;100.00;52321.59;5053734;28;20223;-80
2023/05/27 03:25:40;;;;;;;20.60;9.50;;;;;;;-145.69;100.00;52278.03;5061679;28;20198;-80
2023/05/27 03:28:06;;;;;;;20.13;9.77;;;;;;;-145.69;100.00;52309.72;5074071;28;20202;-80
2023/05/27 03:30:38;;;;;;;19.20;8.33;;;;;;;-145.69;100.00;52313.69;5073712;28;20214;-80
2023/05/27 03:33:05;;;;;;;20.80;9.23;;;;;;;-145.69;100.00;52305.75;5073651;28;20645;-80
2023/05/27 03:35:31;;;;;;;22.53;8.60;;;;;;;-145.69;100.00;52319.63;5073491;28;20289;-80
2023/05/27 03:37:58;;;;;;;18.33;8.30;;;;;;;-145.69;100.00;52319.63;5073087;28;20202;-80
2023/05/27 03:40:26;;;;;;;15.77;8.67;;;;;;;-145.69;100.00;52349.31;5073398;28;20209;-81
2023/05/27 03:42:54;;;;;;;20.37;9.40;;;;;;;-145.69;100.00;52307.75;5070138;28;20310;-80
2023/05/27 03:45:20;;;;;;;18.57;8.93;;;;;;;-145.69;100.00;52301.81;5053326;28;20286;-81
2023/05/27 03:47:49;;;;;;;17.37;8.30;;;;;;;-145.69;100.00;52315.66;5052042;28;20644;-80
2023/05/27 03:50:18;;;;;;;15.17;7.57;;;;;;;-145.69;100.00;52301.81;5058632;28;20313;-80
2023/05/27 03:52:44;;;;;;;15.47;8.13;;;;;;;-145.69;100.00;52282.00;5072592;28;20202;-81
2023/05/27 03:55:13;;;;;;;23.98;10.55;;;;;;;-145.69;100.00;52347.34;5072368;28;20503;-80
2023/05/27 03:57:41;;;;;;;19.93;9.00;;;;;;;-145.69;100.00;52293.88;5072722;28;20658;-81
2023/05/27 04:00:12;;;;;;;19.97;8.77;;;;;;;-145.69;100.00;52293.88;5073166;28;20213;-80
2023/05/27 04:02:42;;;;;;;18.63;8.83;;;;;;;-145.69;100.00;52282.00;5056179;28;20195;-81
2023/05/27 04:05:09;;;;;;;21.10;10.35;;;;;;;-145.69;100.00;52285.97;5052633;28;20445;-80
2023/05/27 04:07:35;;;;;;;16.30;8.87;;;;;;;-145.69;100.00;52293.88;5052424;28;20204;-80
2023/05/27 04:10:02;;;;;;;17.53;7.97;;;;;;;-145.69;100.00;52293.88;5052848;28;20200;-80
2023/05/27 04:12:29;;;;;;;21.53;8.50;;;;;;;-145.69;100.00;52285.97;5052920;28;20204;-80
2023/05/27 04:14:57;;;;;;;16.20;8.20;;;;;;;-145.69;100.00;52311.69;5071831;28;20689;-81
2023/05/27 04:17:24;;;;;;;18.03;8.00;;;;;;;-145.69;100.00;52313.69;5059405;28;20195;-80
2023/05/27 04:19:56;;;;;;;24.83;7.80;;;;;;;-145.69;100.00;52309.72;5070710;28;20191;-81
2023/05/27 04:22:22;;;;;;;17.57;8.23;;;;;;;-145.69;100.00;52303.78;5060642;28;20191;-80
2023/05/27 04:24:51;;;;;;;15.47;8.03;;;;;;;-145.69;100.00;52331.50;5071805;28;20230;-80
2023/05/27 04:27:19;;;;;;;19.10;8.13;;;;;;;-145.69;100.00;52276.06;5052758;28;20235;-81
2023/05/27 04:29:45;;;;;;;20.37;8.80;;;;;;;-145.69;100.00;52285.97;5052626;28;20622;-81
2023/05/27 04:32:13;;;;;;;17.37;8.60;;;;;;;-145.69;100.00;52307.75;5052763;28;20230;-81
2023/05/27 04:34:41;;;;;;;21.37;7.47;;;;;;;-145.69;100.00;52285.97;5051991;28;20215;-81
2023/05/27 04:37:09;;;;;;;16.70;7.50;;;;;;;-145.69;100.00;52280.00;5052923;28;20200;-81
2023/05/27 04:39:36;;;;;;;18.50;8.27;;;;;;;-145.69;100.00;52357.25;5052292;28;20655;-81
2023/05/27 04:42:02;;;;;;;14.97;7.77;;;;;;;-145.69;100.00;52285.97;5070024;28;20199;-81
2023/05/27 04:44:29;;;;;;;17.73;8.13;;;;;;;-145.69;100.00;52289.91;5072657;28;20238;-81
2023/05/27 04:46:55;;;;;;;23.90;8.87;;;;;;;-145.69;100.00;52293.88;5070768;28;20194;-81
2023/05/27 04:49:26;;;;;;;19.20;8.60;;;;;;;-145.69;100.00;52321.59;5072477;28;20230;-81
2023/05/27 04:51:53;;;;;;;20.37;8.20;;;;;;;-145.69;100.00;52282.00;5071493;28;20546;-81
2023/05/27 04:54:21;;;;;;;17.63;9.17;;;;;;;-145.69;100.00;52309.72;5072557;28;20199;-81
2023/05/27 04:56:47;;;;;;;21.57;9.07;;;;;;;-145.69;100.00;52293.88;5072524;28;20202;-81
2023/05/27 04:59:16;;;;;;;16.57;8.33;;;;;;;-145.69;100.00;52256.25;5072403;28;20202;-80
2023/05/27 05:02:09;;;;;;;17.83;8.80;;;;;;;-145.69;100.00;52301.81;5071833;28;20191;-80
2023/05/27 05:04:41;;;;;;;17.90;8.90;;;;;;;-145.69;100.00;52291.91;5066270;28;20244;-81
2023/05/27 05:07:08;;;;;;;20.13;9.87;;;;;;;-145.69;100.00;52291.91;5076019;28;20232;-82
2023/05/27 05:09:34;;;;;;;17.00;8.63;;;;;;;-145.69;100.00;52274.06;5076195;28;20661;-82
2023/05/27 05:12:03;;;;;;;16.23;8.10;;;;;;;-145.69;100.00;52270.13;5075661;28;20198;-81
2023/05/27 05:14:32;;;;;;;21.57;8.30;;;;;;;-145.69;100.00;52285.97;5074423;28;20202;-80
2023/05/27 05:16:58;;;;;;;16.07;7.47;;;;;;;-145.69;100.00;52274.06;5068321;28;20196;-81
2023/05/27 05:19:25;;;;;;;17.07;7.70;;;;;;;-145.69;100.00;52274.06;5072361;28;20209;-80
2023/05/27 05:21:56;;;;;;;13.97;7.57;;;;;;;-145.69;100.00;52289.91;5075777;28;20207;-80
2023/05/27 05:24:22;;;;;;;19.63;7.50;;;;;;;-145.69;100.00;52309.72;5075968;28;20230;-81
2023/05/27 05:26:49;;;;;;;14.43;7.17;;;;;;;-145.69;100.00;52282.00;5075830;28;20198;-80
2023/05/27 05:29:15;;;;;;;13.77;7.07;;;;;;;-145.69;100.00;52254.28;5061623;28;20330;-81
2023/05/27 05:31:44;;;;;;;16.73;7.40;;;;;;;-145.69;100.00;52282.00;5056005;28;20203;-81
2023/05/27 05:34:11;;;;;;;15.47;8.23;;;;;;;-145.69;100.00;52305.75;5055677;28;20264;-81
2023/05/27 05:36:37;;;;;;;20.07;7.23;;;;;;;-145.69;100.00;52266.16;5055724;28;20690;-81
2023/05/27 05:39:05;;;;;;;17.47;6.93;;;;;;;-145.69;100.00;52248.34;5055702;28;20654;-81
2023/05/27 05:41:37;;;;;;;17.90;6.90;;;;;;;-145.69;100.00;52289.91;5071222;28;20201;-81
2023/05/27 05:44:04;;;;;;;15.95;6.70;;;;;;;-145.69;100.00;52254.28;5064757;28;20573;-80
2023/05/27 05:46:35;;;;;;;14.32;6.07;;;;;;;-145.69;100.00;52234.47;5058727;28;20229;-81
2023/05/27 05:49:05;;;;;;;17.38;6.60;;;;;;;-145.69;100.00;52220.59;5066998;28;20219;-82
2023/05/27 05:51:33;;;;;;;11.80;5.75;;;;;;;-145.69;100.00;52206.75;5059375;28;20195;-81
2023/05/27 05:53:59;;;;;;;10.63;5.68;;;;;;;-145.69;100.00;52230.50;5067349;28;20206;-81
2023/05/27 05:56:30;;;;;;;11.73;5.70;;;;;;;-145.69;100.00;52212.69;5046880;28;20605;-81
2023/05/27 05:58:58;;;;;;;13.00;6.00;;;;;;;-145.69;100.00;52232.50;5035637;28;20575;-82
2023/05/27 06:01:26;;;;;;;12.50;6.25;;;;;;;-145.69;100.00;52238.44;5035489;28;20258;-80
2023/05/27 06:03:53;;;;;;;13.00;6.03;;;;;;;-145.69;100.00;52240.41;5035242;28;20262;-81
2023/05/27 06:06:19;;;;;;;14.27;6.43;;;;;;;-145.69;100.00;52214.66;5061424;28;20198;-81
2023/05/27 06:08:46;;;;;;;11.35;5.75;;;;;;;-145.69;100.00;52214.66;5057692;28;20196;-81
2023/05/27 06:11:13;;;;;;;11.90;6.03;;;;;;;-145.69;100.00;52242.38;5056595;28;20211;-81
2023/05/27 06:13:42;;;;;;;12.52;5.88;;;;;;;-145.69;100.00;52250.31;5074985;28;20676;-81
2023/05/27 06:16:09;;;;;;;16.05;7.10;;;;;;;-145.69;100.00;52202.78;5072908;28;20201;-81
2023/05/27 06:18:35;;;;;;;16.27;6.35;;;;;;;-145.69;100.00;52208.72;5073547;28;20594;-81
2023/05/27 06:21:02;;;;;;;12.13;5.78;;;;;;;-145.69;100.00;52250.31;5074816;28;20194;-81
2023/05/27 06:23:31;;;;;;;13.70;5.80;;;;;;;-145.69;100.00;52250.31;5072864;28;20203;-81
2023/05/27 06:25:57;;;;;;;10.85;4.97;;;;;;;-145.69;100.00;52212.69;5074698;28;20195;-81
2023/05/27 06:28:25;;;;;;;17.33;6.38;;;;;;;-145.69;100.00;52198.81;5074908;28;20205;-81
2023/05/27 06:30:53;;;;;;;14.65;5.93;;;;;;;-145.69;100.00;52198.81;5074902;28;20209;-82
2023/05/27 06:33:19;;;;;;;12.57;5.78;;;;;;;-145.69;100.00;52226.53;5074588;28;20202;-81
2023/05/27 06:35:46;;;;;;;16.67;5.80;;;;;;;-145.69;100.00;52208.72;5055717;28;20208;-81
2023/05/27 06:38:16;;;;;;;10.80;5.40;;;;;;;-145.69;100.00;52230.50;5063302;28;20199;-81
2023/05/27 06:40:43;;;;;;;16.30;6.07;;;;;;;-145.69;100.00;52198.81;5062113;28;20195;-81
2023/05/27 06:43:09;;;;;;;13.35;5.88;;;;;;;-145.69;100.00;52222.59;5054158;28;20191;-81
2023/05/27 06:45:36;;;;;;;15.25;5.97;;;;;;;-145.69;100.00;52194.88;5054211;28;20289;-82
2023/05/27 06:48:04;;;;;;;18.75;5.97;;;;;;;-145.69;100.00;52250.31;5054381;28;20540;-81
2023/05/27 06:50:30;;;;;;;15.85;5.88;;;;;;;-145.69;100.00;52230.50;5057746;28;20238;-81
2023/05/27 06:53:02;;;;;;;19.77;5.47;;;;;;;-145.69;100.00;52218.63;5054476;28;20206;-81
2023/05/27 06:55:28;;;;;;;11.50;5.80;;;;;;;-145.69;100.00;52226.53;5054334;28;20207;-81
2023/05/27 06:57:55;;;;;;;10.65;5.15;;;;;;;-145.69;100.00;52214.66;5072319;28;20199;-82
2023/05/27 07:00:21;;;;;;;14.90;5.90;;;;;;;-145.69;100.00;52212.69;5074186;28;20210;-81
2023/05/27 07:02:48;;;;;;;19.27;5.32;;;;;;;-145.69;100.00;52228.53;5066786;28;20199;-82
2023/05/27 07:05:28;;;;;;;13.52;5.55;;;;;;;-145.69;100.00;52208.72;5053772;28;20749;-82
2023/05/27 07:07:54;;;;;;;13.98;5.35;;;;;;;-145.69;100.00;52190.91;5070970;28;20199;-82
2023/05/27 07:10:21;;;;;;;15.35;5.78;;;;;;;-145.69;100.00;52204.75;5073736;28;20207;-82
2023/05/27 07:12:47;;;;;;;17.38;5.68;;;;;;;-145.69;100.00;52198.81;5073250;28;20201;-82
2023/05/27 07:15:16;;;;;;;14.00;5.45;;;;;;;-145.69;100.00;52155.25;5073901;28;20199;-82
2023/05/27 07:17:43;;;;;;;19.33;6.20;;;;;;;-145.69;100.00;52194.88;5073962;28;20211;-81
2023/05/27 07:20:10;;;;;;;20.35;5.45;;;;;;;-145.69;100.00;52171.09;5055288;28;20242;-81
2023/05/27 07:22:41;;;;;;;13.27;5.60;;;;;;;-145.69;99.84;52186.94;5053681;28;20610;-81
2023/05/27 07:25:09;;;;;;;16.33;5.40;;;;;;;-145.69;99.26;52186.94;5053553;28;20595;-81
2023/05/27 07:27:35;;;;;;;13.77;5.10;;;;;;;-145.69;99.56;52232.50;5053074;28;20555;-82
2023/05/27 07:30:02;;;;;;;14.38;5.95;;;;;;;-145.69;98.08;52200.81;5053376;28;20203;-81
2023/05/27 07:32:32;;;;;;;13.02;5.82;;;;;;;-145.69;100.00;52192.88;5071848;28;20195;-81
2023/05/27 07:35:01;;;;;;;16.50;5.38;;;;;;;-145.69;95.17;52161.19;5073331;28;20204;-81
2023/05/27 07:37:30;;;;;;;19.00;5.65;;;;;;;-145.69;97.02;52210.72;5063725;28;20203;-81
2023/05/27 07:39:58;;;;;;;12.70;5.35;;;;;;;-145.69;95.46;52190.91;5066983;28;20666;-80
2023/05/27 07:42:25;;;;;;;17.50;5.50;;;;;;;-145.69;99.65;52141.41;5071424;28;20199;-80
2023/05/27 07:44:51;;;;;;;14.45;5.32;;;;;;;-145.69;93.94;52171.09;5073367;28;20231;-81
2023/05/27 07:47:24;;;;;;;10.27;4.30;;;;;;;-145.69;87.15;52163.19;5073151;28;20249;-81
2023/05/27 07:49:51;;;;;;;12.85;5.03;;;;;;;-145.69;89.49;52181.00;5068843;28;20280;-80
2023/05/27 07:52:17;;;;;;;13.52;4.68;;;;;;;-145.69;92.20;52171.09;5072981;28;20198;-81
2023/05/27 07:54:44;;;;;;;17.20;5.20;;;;;;;-145.69;97.44;52151.28;5073024;28;20225;-80
2023/05/27 07:57:12;;;;;;;16.27;5.18;;;;;;;-145.69;95.56;52179.03;5073150;28;20209;-80
2023/05/27 07:59:38;;;;;;;16.67;4.65;;;;;;;-145.69;87.94;52210.72;5073195;28;20198;-81
2023/05/27 08:02:06;;;;;;;10.95;5.03;;;;;;;-145.69;85.87;52163.19;5059412;28;20200;-81
2023/05/27 08:04:46;;;;;;;16.38;4.93;;;;;;;-145.69;87.39;52171.09;5058186;28;20249;-81
2023/05/27 08:07:12;;;;;;;16.08;4.55;;;;;;;-145.69;91.05;52143.38;5052894;28;20677;-80
2023/05/27 08:09:39;;;;;;;14.38;4.85;;;;;;;-145.69;87.47;52155.25;5053154;28;20215;-81
2023/05/27 08:12:06;;;;;;;15.88;4.57;;;;;;;-145.69;88.06;52139.41;5062522;28;20199;-79
2023/05/27 08:14:36;;;;;;;20.38;5.22;;;;;;;-145.69;82.56;52151.28;5071643;28;20252;-81
2023/05/27 08:17:03;;;;;;;14.57;4.53;;;;;;;-145.69;80.75;52127.53;5072191;28;20550;-80
2023/05/27 08:19:29;;;;;;;15.33;5.00;;;;;;;-145.69;82.15;52143.38;5059051;28;20536;-78
2023/05/27 08:21:59;;;;;;;21.88;5.15;;;;;;;-145.69;85.71;52135.47;5052773;28;20290;-79
2023/05/27 08:24:27;;;;;;;12.35;4.70;;;;;;;-145.69;88.48;52155.25;5052437;28;20769;-79
2023/05/27 08:26:53;;;;;;;18.70;5.00;;;;;;;-145.69;77.35;52133.47;5061326;28;20308;-79
2023/05/27 08:29:20;;;;;;;14.38;4.78;;;;;;;-145.69;84.01;52151.28;5072999;28;20225;-79
2023/05/27 08:31:51;;;;;;;11.98;4.57;;;;;;;-145.69;73.85;52147.34;5072754;28;20198;-79
2023/05/27 08:34:18;;;;;;;11.65;4.82;;;;;;;-145.69;74.79;52133.47;5072710;28;20205;-79
2023/05/27 08:36:47;;;;;;;19.55;4.32;;;;;;;-145.69;79.67;52127.53;5072700;28;20711;-79
2023/05/27 08:39:14;;;;;;;15.43;4.43;;;;;;;-145.69;78.97;52127.53;5063247;28;20321;-79
2023/05/27 08:41:42;;;;;;;12.10;5.25;;;;;;;-145.69;74.24;52141.41;5057727;28;20451;-78
2023/05/27 08:44:09;;;;;;;13.43;4.72;;;;;;;-145.69;73.79;52141.41;5055614;28;20195;-79
2023/05/27 08:46:37;;;;;;;17.30;5.30;;;;;;;-145.69;74.51;52115.66;5056458;28;20199;-79
2023/05/27 08:49:10;;;;;;;17.40;6.10;;;;;;;-145.69;73.53;52131.50;5056467;28;20772;-79
2023/05/27 08:51:39;;;;;;;12.07;5.00;;;;;;;-145.69;69.78;52109.72;5056982;28;20203;-80
2023/05/27 08:54:10;;;;;;;13.10;5.43;;;;;;;-145.69;75.94;52163.19;5056743;28;20199;-79
2023/05/27 08:56:38;;;;;;;19.23;5.57;;;;;;;-145.69;71.40;52137.44;5056673;28;20199;-81
2023/05/27 08:59:04;;;;;;;18.38;5.72;;;;;;;-145.69;71.65;52119.63;5056714;28;20206;-80
2023/05/27 09:01:33;;;;;;;18.58;5.55;;;;;;;-145.69;76.08;52127.53;5057163;28;20286;-79
2023/05/27 09:04:00;;;;;;;16.02;5.47;;;;;;;-145.69;76.31;52123.56;5059206;28;20455;-84
2023/05/27 09:06:28;;;;;;;16.35;5.35;;;;;;;-145.69;70.22;52123.56;5056202;28;20690;-78
2023/05/27 09:08:58;;;;;;;13.43;4.90;;;;;;;-145.69;72.39;52155.25;5056252;28;20278;-79
2023/05/27 09:11:27;;;;;;;14.77;5.63;;;;;;;-145.69;71.95;52099.81;5057199;28;20535;-78
2023/05/27 09:13:55;;;;;;;12.00;5.43;;;;;;;-145.69;58.76;52139.41;5056078;28;20207;-80
2023/05/27 09:16:22;;;;;;;12.13;4.90;;;;;;;-145.69;59.21;52099.81;5073531;28;20609;-79
2023/05/27 09:18:53;;;;;;;14.80;5.68;;;;;;;-145.69;65.58;52091.88;5076386;28;20210;-80
2023/05/27 09:21:20;;;;;;;13.93;5.40;;;;;;;-145.69;61.75;52115.66;5076029;28;20214;-78
2023/05/27 09:23:48;;;;;;;11.18;4.60;;;;;;;-145.69;63.15;52091.88;5075900;28;20195;-79
2023/05/27 09:26:14;;;;;;;12.77;4.82;;;;;;;-145.69;60.62;52089.91;5075192;28;20230;-78
2023/05/27 09:28:43;;;;;;;14.23;5.50;;;;;;;-145.69;55.77;52095.84;5055755;28;20351;-78
2023/05/27 09:31:10;;;;;;;13.60;5.03;;;;;;;-145.69;54.69;52066.16;5056104;28;20294;-81
2023/05/27 09:33:38;;;;;;;10.52;4.97;;;;;;;-145.69;48.34;52078.03;5071942;28;20367;-80
2023/05/27 09:36:06;;;;;;;11.20;6.05;;;;;;;-145.69;46.16;52072.09;5076029;28;20286;-84
2023/05/27 09:38:38;;;;;;;11.95;4.97;;;;;;;-145.69;45.28;52087.94;5075353;28;20207;-79
2023/05/27 09:41:06;;;;;;;11.18;5.38;;;;;;;-145.69;45.52;52054.25;5056878;28;20227;-79
2023/05/27 09:43:32;;;;;;;9.05;4.65;;;;;;;-145.69;51.37;52068.13;5055830;28;20257;-79
2023/05/27 09:46:01;;;;;;;12.35;5.45;;;;;;;-145.69;51.12;52076.03;5055500;28;20235;-79
2023/05/27 09:48:30;;;;;;;13.15;4.88;;;;;;;-145.69;47.75;52087.94;5055167;28;20261;-84
2023/05/27 09:50:58;;;;;;;12.45;5.25;;;;;;;-145.69;53.70;52082.00;5060566;28;20252;-79
2023/05/27 09:53:26;;;;;;;14.52;5.60;;;;;;;-145.69;44.33;52076.03;5075303;28;20210;-80
2023/05/27 09:55:53;;;;;;;9.73;5.20;;;;;;;-145.69;45.30;52064.16;5060045;28;20258;-79
2023/05/27 09:58:25;;;;;;;17.23;5.10;;;;;;;-145.69;43.67;52060.22;5055311;28;20199;-82
2023/05/27 10:00:59;;;;;;;7.55;4.57;;;;;;;-145.69;43.11;52026.53;5054746;28;20239;-78
2023/05/27 10:03:28;;;;;;;12.43;4.60;;;;;;;-145.69;44.35;52028.53;5060817;28;20193;-80
2023/05/27 10:05:56;;;;;;;10.90;5.15;;;;;;;-145.69;41.44;52062.19;5055657;28;20291;-84
2023/05/27 10:08:26;;;;;;;11.20;5.13;;;;;;;-145.69;40.60;52054.25;5043145;28;20219;-82
2023/05/27 10:10:58;;;;;;;12.63;5.15;;;;;;;-145.69;41.76;52030.50;5042210;28;20188;-81
2023/05/27 10:13:28;;;;;;;15.80;5.75;;;;;;;-145.69;42.74;52040.41;5055400;28;20199;-80
2023/05/27 10:15:54;;;;;;;10.52;5.47;;;;;;;-145.69;41.68;52048.31;5067639;28;20195;-78
2023/05/27 10:18:29;;;;;;;12.75;5.55;;;;;;;-145.69;42.35;52028.53;5074881;28;20198;-79
2023/05/27 10:20:57;;;;;;;13.85;4.97;;;;;;;-145.69;42.69;52056.25;5075073;28;20201;-79
2023/05/27 10:23:26;;;;;;;14.38;5.38;;;;;;;-145.69;42.95;52044.38;5074909;28;20670;-79
2023/05/27 10:25:57;;;;;;;13.90;5.00;;;;;;;-145.69;42.28;52064.16;5075261;28;20227;-84
2023/05/27 10:28:26;;;;;;;9.75;5.20;;;;;;;-145.69;41.60;52050.31;5056584;28;20215;-83
2023/05/27 10:30:53;;;;;;;7.28;4.70;;;;;;;-145.69;42.84;52040.41;5055026;28;20206;-79
2023/05/27 10:33:29;;;;;;;11.43;5.35;;;;;;;-145.69;40.97;52076.03;5068385;28;20582;-83
2023/05/27 10:35:56;;;;;;;10.05;4.85;;;;;;;-145.69;43.05;52072.09;5075313;28;20206;-83
2023/05/27 10:38:23;;;;;;;8.60;4.72;;;;;;;-145.69;43.51;52008.72;5070079;28;20253;-77
2023/05/27 10:41:10;;;;;;;10.75;4.93;;;;;;;-145.69;42.87;52036.44;5073606;28;20195;-77
2023/05/27 10:43:38;;;;;;;11.20;5.10;;;;;;;-145.69;42.89;52052.28;5074206;28;20209;-77
2023/05/27 10:46:08;;;;;;;12.93;5.38;;;;;;;-145.69;42.54;52042.38;5074457;28;20226;-78
2023/05/27 10:48:39;;;;;;;17.80;5.40;;;;;;;-145.69;43.41;52032.47;5074266;28;20249;-81
2023/05/27 10:51:07;;;;;;;10.55;5.10;;;;;;;-145.69;42.14;52062.19;5066850;28;20202;-86
2023/05/27 10:53:42;;;;;;;12.13;4.78;;;;;;;-145.69;44.65;52046.34;5053995;28;20262;-79
2023/05/27 10:56:10;;;;;;;11.38;4.65;;;;;;;-145.69;43.09;52060.22;5054075;28;20684;-77
2023/05/27 10:58:39;;;;;;;10.55;4.68;;;;;;;-145.69;44.45;52052.28;5054487;28;20562;-76
2023/05/27 11:01:11;;;;;;;13.98;5.65;;;;;;;-145.69;46.42;52034.47;5053770;28;20677;-75
2023/05/27 11:03:44;;;;;;;11.25;5.30;;;;;;;-145.69;44.89;52040.41;5067641;28;20778;-76
2023/05/27 11:06:12;;;;;;;13.73;5.18;;;;;;;-145.69;43.04;52040.41;5073980;28;20230;-76
2023/05/27 11:08:39;;;;;;;9.25;4.60;;;;;;;-145.69;41.68;52012.69;5073752;28;20248;-78